createdAt,value
2023-05-10T00:01:44.745Z,100650.80
2023-05-10T00:11:48.329Z,100649.88
2023-05-10T00:21:51.874Z,100648.56
2023-05-10T00:31:55.395Z,100648.06
2023-05-10T00:41:58.996Z,100647.42
2023-05-10T00:52:04.343Z,100650.59
2023-05-10T01:03:11.107Z,100652.15
2023-05-10T01:13:20.100Z,100646.45
2023-05-10T01:23:46.602Z,100642.66
2023-05-10T01:34:17.647Z,100646.36
2023-05-10T01:44:42.758Z,100649.41
2023-05-10T01:54:53.287Z,100651.33
2023-05-10T02:05:59.047Z,100655.81
2023-05-10T02:16:06.415Z,100648.89
2023-05-10T02:26:11.595Z,100645.73
2023-05-10T02:36:16.727Z,100639.81
2023-05-10T02:46:20.485Z,100634.11
2023-05-10T02:57:27.913Z,100628.81
2023-05-10T03:07:31.563Z,100629.99
2023-05-10T03:17:48.683Z,100636.68
2023-05-10T03:28:04.946Z,100638.45
2023-05-10T03:38:31.072Z,100633.27
2023-05-10T03:48:42.840Z,100635.05
2023-05-10T03:59:27.020Z,100633.48
2023-05-10T04:09:30.834Z,100626.71
2023-05-10T04:19:34.528Z,100614.98
2023-05-10T04:29:38.179Z,100615.87
2023-05-10T04:39:42.506Z,100617.44
2023-05-10T04:50:08.841Z,100612.34
2023-05-10T05:00:13.399Z,100611.82
2023-05-10T05:11:17.796Z,100614.34
2023-05-10T05:21:21.479Z,100619.34
2023-05-10T05:31:25.262Z,100617.36
2023-05-10T05:41:28.774Z,100617.33
2023-05-10T05:51:32.460Z,100613.25
2023-05-10T06:01:36.844Z,100610.41
2023-05-10T06:11:40.384Z,100612.10
2023-05-10T06:21:46.666Z,100608.83
2023-05-10T06:31:50.356Z,100608.48
2023-05-10T06:41:54.068Z,100605.88
2023-05-10T06:51:57.727Z,100602.03
2023-05-10T07:02:02.918Z,100602.22
2023-05-10T07:12:08.232Z,100599.34
2023-05-10T07:22:14.176Z,100599.64
2023-05-10T07:32:17.722Z,100598.95
2023-05-10T07:42:22.837Z,100596.00
2023-05-10T07:52:26.661Z,100591.49
2023-05-10T08:03:30.928Z,100586.77
2023-05-10T08:13:35.317Z,100585.19
2023-05-10T08:23:38.798Z,100583.47
2023-05-10T08:33:50.579Z,100574.30
2023-05-10T08:43:55.190Z,100573.93
2023-05-10T08:54:21.070Z,100569.98
2023-05-10T09:04:24.749Z,100570.02
2023-05-10T09:14:28.848Z,100562.38
2023-05-10T09:24:32.331Z,100563.80
2023-05-10T09:34:41.368Z,100554.45
2023-05-10T09:44:47.441Z,100552.45
2023-05-10T09:55:35.265Z,100546.77
2023-05-10T10:05:41.914Z,100536.98
2023-05-10T10:15:46.039Z,100524.48
2023-05-10T10:25:50.718Z,100520.16
2023-05-10T10:35:55.745Z,100509.31
2023-05-10T10:46:18.406Z,100502.73
2023-05-10T10:57:03.233Z,100481.04
2023-05-10T11:07:52.307Z,100480.40
2023-05-10T11:17:57.056Z,100473.85
2023-05-10T11:28:05.855Z,100462.04
2023-05-10T11:38:29.659Z,100454.86
2023-05-10T11:48:34.673Z,100442.48
2023-05-10T11:58:40.254Z,100434.80
2023-05-10T12:09:08.412Z,100443.17
2023-05-10T12:19:12.669Z,100433.59
2023-05-10T12:29:18.916Z,100440.08
2023-05-10T12:39:22.652Z,100434.91
2023-05-10T12:49:26.176Z,100434.72
2023-05-10T12:59:50.311Z,100429.95
2023-05-10T13:09:55.631Z,100427.27
2023-05-10T13:19:59.222Z,100417.27
2023-05-10T13:30:06.357Z,100416.06
2023-05-10T13:40:10.159Z,100401.25
2023-05-10T13:50:13.785Z,100398.61
2023-05-10T14:00:18.032Z,100391.59
2023-05-10T14:10:21.709Z,100384.23
2023-05-10T14:20:25.547Z,100382.16
2023-05-10T14:30:29.266Z,100381.02
2023-05-10T14:40:33.017Z,100371.77
2023-05-10T14:50:37.530Z,100373.66
2023-05-10T15:00:44.276Z,100375.39
2023-05-10T15:10:48.955Z,100367.54
2023-05-10T15:21:53.420Z,100364.60
2023-05-10T15:31:57.052Z,100365.33
2023-05-10T15:42:00.804Z,100365.27
2023-05-10T15:52:04.429Z,100359.23
2023-05-10T16:02:48.915Z,100361.13
2023-05-10T16:12:54.291Z,100358.56
2023-05-10T16:23:59.832Z,100361.94
2023-05-10T16:34:03.715Z,100365.15
2023-05-10T16:44:07.357Z,100366.95
2023-05-10T16:54:11.120Z,100363.28
2023-05-10T17:04:15.509Z,100367.39
2023-05-10T17:14:19.511Z,100379.52
2023-05-10T17:24:23.121Z,100388.25
2023-05-10T17:34:26.790Z,100393.37
2023-05-10T17:45:31.196Z,100408.11
2023-05-10T17:55:35.179Z,100414.39
2023-05-10T18:05:39.969Z,100417.95
2023-05-10T18:16:25.246Z,100429.00
2023-05-10T18:26:29.575Z,100431.77
2023-05-10T18:37:14.449Z,100436.70
2023-05-10T18:48:23.708Z,100448.56
2023-05-10T18:59:35.298Z,100460.70
2023-05-10T19:09:38.908Z,100475.02
2023-05-10T19:19:43.620Z,100478.71
2023-05-10T20:04:46.755Z,100504.77
2023-05-10T20:26:41.762Z,100511.54
2023-05-10T20:51:03.698Z,100512.86
2023-05-10T21:15:00.319Z,100529.26
2023-05-10T22:29:46.852Z,100553.29
2023-05-10T22:40:13.824Z,100557.29
2023-05-10T22:50:28.435Z,100565.21
2023-05-10T23:00:45.503Z,100573.08
2023-05-10T23:11:05.842Z,100573.55
2023-05-10T23:21:40.094Z,100578.38
2023-05-10T23:32:30.334Z,100584.43
2023-05-10T23:54:55.649Z,100591.42
